createdAt,value
2024-03-05T02:18:23.667Z,20.50
2024-03-05T02:20:50.863Z,23.10
2024-03-05T02:23:17.959Z,21.50
2024-03-05T02:25:46.188Z,21.70
2024-03-05T02:28:14.709Z,22.20
2024-03-05T02:30:41.568Z,20.30
2024-03-05T02:33:08.835Z,20.00
2024-03-05T02:35:35.944Z,19.40
2024-03-05T02:38:07.375Z,17.90
2024-03-05T02:40:37.394Z,22.50
2024-03-05T02:43:04.894Z,17.60
2024-03-05T02:45:32.362Z,20.60
2024-03-05T02:48:07.727Z,21.00
2024-03-05T02:50:35.742Z,19.00
2024-03-05T02:53:04.369Z,23.10
2024-03-05T02:55:32.150Z,20.40
2024-03-05T02:58:00.075Z,22.00
2024-03-05T03:00:27.322Z,21.80
2024-03-05T03:02:54.950Z,20.10
2024-03-05T03:05:25.304Z,20.70
2024-03-05T03:07:53.553Z,20.30
2024-03-05T03:10:21.012Z,23.00
2024-03-05T03:12:49.481Z,19.30
2024-03-05T03:15:18.958Z,23.80
2024-03-05T03:17:46.363Z,20.20
2024-03-05T03:20:17.234Z,22.20
2024-03-05T03:22:45.352Z,21.80
2024-03-05T03:25:13.097Z,24.80
2024-03-05T03:27:44.299Z,21.70
2024-03-05T03:30:19.730Z,21.10
2024-03-05T03:32:52.390Z,20.90
2024-03-05T03:35:19.917Z,21.10
2024-03-05T03:37:48.008Z,23.50
2024-03-05T03:40:24.783Z,20.50
2024-03-05T03:42:52.864Z,20.20
2024-03-05T03:45:20.694Z,20.60
2024-03-05T03:47:48.658Z,18.60
2024-03-05T03:50:16.356Z,21.60
2024-03-05T03:52:45.598Z,20.10
2024-03-05T03:55:12.847Z,22.10
2024-03-05T03:57:40.967Z,21.60
2024-03-05T04:00:19.016Z,22.10
2024-03-05T04:02:48.128Z,18.40
2024-03-05T04:05:15.644Z,21.70
2024-03-05T04:07:44.222Z,21.80
2024-03-05T04:10:12.331Z,22.50
2024-03-05T04:12:42.508Z,19.60
2024-03-05T04:15:10.699Z,19.90
2024-03-05T04:17:43.986Z,19.50
2024-03-05T04:22:41.043Z,17.40
2024-03-05T04:25:10.980Z,22.00
2024-03-05T04:27:48.744Z,17.90
2024-03-05T04:30:16.951Z,16.90
2024-03-05T04:32:59.216Z,20.20
2024-03-05T04:35:29.684Z,17.30
2024-03-05T04:37:58.392Z,18.40
2024-03-05T04:40:26.138Z,21.70
2024-03-05T04:42:59.053Z,18.70
2024-03-05T04:47:58.154Z,14.50
2024-03-05T04:50:25.547Z,19.10
2024-03-05T04:52:59.046Z,17.40
2024-03-05T04:55:26.693Z,16.90
2024-03-05T04:58:03.469Z,21.20
2024-03-05T05:00:34.992Z,18.20
2024-03-05T05:03:05.602Z,19.30
2024-03-05T05:05:41.251Z,23.50
2024-03-05T05:08:09.517Z,17.70
2024-03-05T05:10:37.822Z,18.50
2024-03-05T05:13:05.288Z,17.30
2024-03-05T05:30:40.112Z,18.30
2024-03-05T05:33:09.251Z,17.70
2024-03-05T05:35:50.612Z,17.00
2024-03-05T05:38:19.251Z,18.80
2024-03-05T05:40:53.027Z,15.80
2024-03-05T05:43:21.508Z,18.70
2024-03-05T05:45:50.165Z,18.30
2024-03-05T05:48:29.285Z,20.70
2024-03-05T05:51:13.921Z,22.70
2024-03-05T05:54:27.252Z,18.80
2024-03-05T05:57:07.794Z,23.00
2024-03-05T06:02:55.500Z,18.20
2024-03-05T06:05:42.307Z,21.30
2024-03-05T06:17:39.914Z,23.60
2024-03-05T06:27:18.493Z,24.50
2024-03-05T06:33:15.326Z,24.30
2024-03-05T06:36:19.005Z,20.70
2024-03-05T06:39:28.724Z,22.50
2024-03-05T06:45:34.288Z,22.70
2024-03-05T06:51:34.108Z,27.50
2024-03-05T06:54:29.258Z,29.20
2024-03-05T06:57:19.063Z,26.00
2024-03-05T07:00:14.444Z,27.80
2024-03-05T07:08:56.768Z,32.30
2024-03-05T07:14:42.412Z,27.60
2024-03-05T07:20:32.140Z,30.10
2024-03-05T07:34:46.286Z,26.40
2024-03-05T07:37:15.397Z,28.60
2024-03-05T07:43:37.166Z,28.80
2024-03-05T07:46:08.018Z,27.20
2024-03-05T07:48:48.336Z,26.30
2024-03-05T07:51:21.260Z,30.90
2024-03-05T07:53:55.061Z,26.00
2024-03-05T07:56:25.927Z,29.30
2024-03-05T07:59:02.133Z,28.70
2024-03-05T08:01:49.000Z,28.50
2024-03-05T08:04:40.980Z,28.90
2024-03-05T08:09:55.136Z,27.10
2024-03-05T08:26:24.558Z,31.70
2024-03-05T08:29:01.638Z,31.60
2024-03-05T08:31:46.625Z,33.50
2024-03-05T08:34:14.759Z,32.60
2024-03-05T08:36:44.066Z,27.30
2024-03-05T08:39:22.201Z,30.20
2024-03-05T08:41:53.854Z,30.60
2024-03-05T08:44:21.752Z,30.60
2024-03-05T08:46:55.621Z,27.20
2024-03-05T08:49:27.550Z,27.90
2024-03-05T08:52:10.420Z,29.60
2024-03-05T08:57:49.563Z,27.60
2024-03-05T09:00:49.304Z,28.60
2024-03-05T09:03:16.955Z,27.00
2024-03-05T09:05:47.679Z,24.50
2024-03-05T09:08:15.482Z,26.40
2024-03-05T09:10:46.047Z,29.40
2024-03-05T09:13:17.725Z,28.20
2024-03-05T09:15:47.312Z,28.50
2024-03-05T09:18:23.747Z,29.20
2024-03-05T09:20:57.425Z,25.70
2024-03-05T09:23:24.134Z,30.70
2024-03-05T09:25:54.364Z,24.90
2024-03-05T09:28:22.429Z,30.30
2024-03-05T09:30:49.468Z,25.30
2024-03-05T09:33:18.888Z,24.70
2024-03-05T09:35:53.879Z,24.10
2024-03-05T09:38:27.229Z,25.90
2024-03-05T09:40:58.789Z,25.40
2024-03-05T09:43:27.424Z,25.60
2024-03-05T09:46:06.314Z,25.40
2024-03-05T09:48:36.546Z,27.60
2024-03-05T09:51:04.246Z,29.30
2024-03-05T09:53:36.050Z,27.90
2024-03-05T09:56:25.952Z,24.80
2024-03-05T09:58:53.368Z,27.70
2024-03-05T10:01:23.128Z,32.10
2024-03-05T10:03:50.320Z,28.50
2024-03-05T10:06:19.984Z,27.40
2024-03-05T10:08:47.680Z,32.80
2024-03-05T10:11:17.023Z,26.70
2024-03-05T10:13:44.663Z,29.20
2024-03-05T10:16:24.089Z,29.10
2024-03-05T10:18:54.091Z,29.20
2024-03-05T10:21:26.517Z,25.70
2024-03-05T10:24:06.444Z,28.30
2024-03-05T10:26:40.250Z,30.90
2024-03-05T10:29:12.786Z,26.40
2024-03-05T10:31:44.699Z,28.00
2024-03-05T10:34:13.718Z,38.20
2024-03-05T10:36:44.219Z,30.60
2024-03-05T10:39:16.315Z,28.50
2024-03-05T10:41:51.095Z,31.60
2024-03-05T10:44:20.921Z,31.60
2024-03-05T10:46:52.707Z,31.00
2024-03-05T10:49:21.106Z,32.60
2024-03-05T10:51:58.267Z,40.50
2024-03-05T10:54:27.443Z,31.60
2024-03-05T10:56:58.358Z,35.10
2024-03-05T10:59:40.616Z,33.50
2024-03-05T11:02:18.853Z,35.50
2024-03-05T11:04:47.777Z,31.60
2024-03-05T11:07:18.239Z,26.90
2024-03-05T11:09:49.655Z,29.20
2024-03-05T11:12:19.812Z,28.60
2024-03-05T11:14:51.058Z,31.20
2024-03-05T11:17:19.393Z,30.60
2024-03-05T11:19:49.513Z,28.40
2024-03-05T11:22:31.775Z,34.80
2024-03-05T11:25:14.557Z,35.80
2024-03-05T11:28:04.245Z,26.20
2024-03-05T11:30:32.622Z,32.10
2024-03-05T11:33:22.631Z,31.00
2024-03-05T11:35:50.862Z,34.50
2024-03-05T11:38:23.314Z,28.60
2024-03-05T11:40:50.975Z,32.10
2024-03-05T11:43:37.028Z,32.60
2024-03-05T11:46:04.102Z,31.80
2024-03-05T11:48:31.233Z,31.70
2024-03-05T11:51:03.846Z,34.00
2024-03-05T11:53:34.799Z,40.00
2024-03-05T11:56:10.123Z,35.50
2024-03-05T11:58:44.519Z,36.40
2024-03-05T12:01:17.729Z,33.10
2024-03-05T12:03:53.002Z,38.50
2024-03-05T12:06:28.598Z,36.40
2024-03-05T12:09:01.090Z,33.30
2024-03-05T12:11:28.253Z,35.20
2024-03-05T12:14:08.148Z,39.40
2024-03-05T12:16:35.355Z,35.60
2024-03-05T12:19:08.122Z,36.50
2024-03-05T12:21:37.867Z,34.00
2024-03-05T12:24:06.329Z,34.50
2024-03-05T12:26:35.357Z,34.50
2024-03-05T12:32:20.906Z,37.90
2024-03-05T12:34:50.851Z,35.30
2024-03-05T12:37:20.796Z,32.70
2024-03-05T12:39:59.329Z,34.70
2024-03-05T12:42:26.236Z,38.60
2024-03-05T12:45:13.605Z,36.70
2024-03-05T12:47:40.609Z,34.60
2024-03-05T12:50:08.886Z,37.40
2024-03-05T12:52:40.996Z,37.50
2024-03-05T12:55:11.974Z,42.80
2024-03-05T12:57:40.974Z,34.70
2024-03-05T13:00:12.412Z,34.40
2024-03-05T13:02:40.107Z,67.00
2024-03-05T13:05:11.295Z,64.70
2024-03-05T13:07:40.730Z,82.80
2024-03-05T13:10:12.361Z,44.90
2024-03-05T13:12:40.818Z,30.70
2024-03-05T13:15:09.861Z,37.20
2024-03-05T13:17:39.412Z,34.90
2024-03-05T13:20:21.447Z,31.50
2024-03-05T13:25:52.837Z,30.80
2024-03-05T13:28:32.988Z,31.50
2024-03-05T13:31:01.083Z,32.80
2024-03-05T13:36:10.633Z,31.60
2024-03-05T13:38:45.026Z,28.10
2024-03-05T13:41:16.785Z,31.60
2024-03-05T13:43:47.472Z,28.30
2024-03-05T13:46:15.101Z,34.10
2024-03-05T13:52:00.013Z,28.90
2024-03-05T13:54:28.705Z,34.50
2024-03-05T13:56:56.053Z,31.90
2024-03-05T13:59:30.404Z,33.60
2024-03-05T14:02:10.562Z,35.00
2024-03-05T14:04:45.650Z,34.00
2024-03-05T14:07:29.643Z,33.10
2024-03-05T14:09:57.778Z,49.00
2024-03-05T14:12:25.398Z,40.00
2024-03-05T14:14:55.439Z,36.20
2024-03-05T14:17:22.532Z,33.90
2024-03-05T14:19:49.947Z,33.40
2024-03-05T14:22:18.643Z,33.90
2024-03-05T14:25:19.096Z,32.50
2024-03-05T14:27:49.155Z,35.10
2024-03-05T14:30:23.733Z,38.30
2024-03-05T14:33:06.019Z,30.00
2024-03-05T14:35:34.933Z,33.10
2024-03-05T14:41:06.519Z,30.90
2024-03-05T14:43:34.593Z,38.40
2024-03-05T14:46:13.057Z,37.00
2024-03-05T14:48:48.863Z,37.90
2024-03-05T14:54:29.268Z,33.00
2024-03-05T14:57:06.482Z,35.40
2024-03-05T14:59:36.702Z,34.90
2024-03-05T15:02:07.501Z,31.50
2024-03-05T15:04:34.616Z,34.10
2024-03-05T15:07:04.377Z,33.70
2024-03-05T15:09:37.768Z,33.00
2024-03-05T15:12:05.371Z,29.20
2024-03-05T15:14:46.159Z,34.00
2024-03-05T15:17:15.590Z,31.70
2024-03-05T15:20:14.598Z,35.50
2024-03-05T15:22:49.001Z,35.60
2024-03-05T15:25:50.924Z,34.90
2024-03-05T15:28:18.791Z,37.90
2024-03-05T15:30:45.806Z,37.10
2024-03-05T15:35:42.118Z,37.50
2024-03-05T15:38:32.366Z,38.30
2024-03-05T15:41:11.877Z,72.90
2024-03-05T15:43:38.990Z,49.90
2024-03-05T15:46:06.079Z,38.60
2024-03-05T15:48:34.353Z,44.20
2024-03-05T15:51:02.080Z,45.60
2024-03-05T15:59:50.267Z,43.30
2024-03-05T16:02:18.424Z,46.80
2024-03-05T16:05:05.112Z,50.40
2024-03-05T16:07:33.610Z,49.00
2024-03-05T16:24:24.019Z,51.30
2024-03-05T16:32:19.109Z,49.40
2024-03-05T16:34:46.911Z,48.60
2024-03-05T16:37:17.086Z,48.30
2024-03-05T16:39:53.930Z,48.60
2024-03-05T16:45:01.411Z,51.60
2024-03-05T16:48:01.195Z,51.10
2024-03-05T16:50:29.255Z,53.00
2024-03-05T16:53:30.271Z,59.90
2024-03-05T16:55:57.357Z,55.50
2024-03-05T16:59:48.906Z,55.70
2024-03-05T17:02:18.288Z,50.30
2024-03-05T17:06:50.550Z,59.60
2024-03-05T17:09:33.490Z,45.80
2024-03-05T17:12:01.658Z,47.30
2024-03-05T17:14:28.400Z,52.10
2024-03-05T17:17:25.685Z,54.40
2024-03-05T17:20:11.097Z,55.50
2024-03-05T17:22:38.078Z,54.20
2024-03-05T17:25:38.301Z,64.20
2024-03-05T17:28:14.419Z,55.40
2024-03-05T17:33:35.861Z,59.30
2024-03-05T17:36:09.424Z,58.10
2024-03-05T17:38:42.700Z,71.80
2024-03-05T17:41:26.919Z,61.60
2024-03-05T17:47:12.287Z,55.10
2024-03-05T17:49:39.782Z,52.80
2024-03-05T17:52:34.104Z,58.80
2024-03-05T17:55:41.248Z,49.20
2024-03-05T17:59:00.002Z,56.40
2024-03-05T18:01:27.784Z,57.60
2024-03-05T18:21:57.766Z,53.10
2024-03-05T18:24:29.271Z,49.40
2024-03-05T18:27:08.268Z,49.70
2024-03-05T19:14:13.779Z,49.80
2024-03-05T20:10:49.418Z,43.10
2024-03-05T20:13:18.319Z,42.40
2024-03-05T20:15:48.485Z,45.80
2024-03-05T20:18:15.776Z,48.90
2024-03-05T20:20:43.640Z,45.70
2024-03-05T20:23:10.778Z,45.30
2024-03-05T20:31:46.009Z,44.00
2024-03-05T20:34:26.269Z,51.00
2024-03-05T20:36:59.369Z,46.50
2024-03-05T20:39:26.034Z,41.20
2024-03-05T20:41:52.792Z,40.40
2024-03-05T20:44:29.761Z,41.40
2024-03-05T20:47:13.293Z,45.00
2024-03-05T20:49:41.625Z,46.40
2024-03-05T20:52:08.714Z,50.70
2024-03-05T20:54:40.696Z,47.30
2024-03-05T20:57:07.818Z,45.20
2024-03-05T20:59:37.881Z,44.10
2024-03-05T21:02:10.735Z,48.90
2024-03-05T21:04:50.395Z,52.30
2024-03-05T21:07:17.429Z,53.40
2024-03-05T21:30:56.863Z,52.30
2024-03-05T21:33:25.059Z,68.60
2024-03-05T21:35:52.296Z,50.80
2024-03-05T21:38:19.965Z,74.00
2024-03-05T21:40:48.493Z,65.50
2024-03-05T21:43:16.779Z,84.00
2024-03-05T21:46:30.792Z,61.00
2024-03-05T21:49:06.856Z,57.40
2024-03-05T21:51:35.244Z,61.60
2024-03-05T21:54:02.550Z,58.10
2024-03-05T21:56:30.778Z,68.50
2024-03-05T21:58:59.394Z,59.80
2024-03-05T22:01:26.740Z,59.50
2024-03-05T22:03:53.920Z,53.20
2024-03-05T22:06:25.023Z,56.00
2024-03-05T22:20:59.350Z,58.80
2024-03-05T22:24:33.045Z,54.40
2024-03-05T22:26:59.679Z,49.90
2024-03-05T22:29:48.049Z,69.30
2024-03-05T22:35:59.844Z,61.40
2024-03-05T22:38:22.469Z,49.90
2024-03-05T22:40:49.548Z,58.00
2024-03-05T22:48:18.666Z,45.20
2024-03-05T22:50:55.446Z,55.00
2024-03-05T22:53:23.403Z,53.60
2024-03-05T22:55:50.282Z,60.00
2024-03-05T22:59:38.267Z,51.40
2024-03-05T23:02:22.119Z,53.20
2024-03-05T23:05:08.162Z,54.40
2024-03-05T23:07:46.846Z,50.40
2024-03-05T23:10:36.936Z,53.60
2024-03-05T23:20:38.832Z,52.00
2024-03-05T23:23:30.435Z,50.80
2024-03-05T23:28:52.162Z,58.50
2024-03-05T23:31:30.073Z,60.50
2024-03-05T23:34:52.679Z,55.50
2024-03-05T23:37:19.658Z,56.90
2024-03-05T23:44:30.879Z,53.70
2024-03-05T23:56:29.932Z,56.80
